sensor_id;sensor_type;location;lat;lon;timestamp;temperature;humidity
12604;DHT22;6367;52.508;13.284;2023-01-09T00:01:25;9.40;99.90
12604;DHT22;6367;52.508;13.284;2023-01-09T00:03:52;9.40;99.90
12604;DHT22;6367;52.508;13.284;2023-01-09T00:06:18;9.40;99.90
12604;DHT22;6367;52.508;13.284;2023-01-09T00:08:43;9.40;99.90
12604;DHT22;6367;52.508;13.284;2023-01-09T00:11:09;9.40;99.90
12604;DHT22;6367;52.508;13.284;2023-01-09T00:13:35;9.40;99.90
12604;DHT22;6367;52.508;13.284;2023-01-09T00:16:06;9.40;99.90
12604;DHT22;6367;52.508;13.284;2023-01-09T00:18:32;9.40;99.90
12604;DHT22;6367;52.508;13.284;2023-01-09T00:20:59;9.40;99.90
12604;DHT22;6367;52.508;13.284;2023-01-09T00:23:25;9.40;99.90
12604;DHT22;6367;52.508;13.284;2023-01-09T00:26:10;9.40;99.90
12604;DHT22;6367;52.508;13.284;2023-01-09T00:28:37;9.50;99.90
12604;DHT22;6367;52.508;13.284;2023-01-09T00:31:05;9.30;99.90
12604;DHT22;6367;52.508;13.284;2023-01-09T00:33:43;9.20;99.90
12604;DHT22;6367;52.508;13.284;2023-01-09T00:36:10;9.30;99.90
12604;DHT22;6367;52.508;13.284;2023-01-09T00:38:36;9.20;99.90
12604;DHT22;6367;52.508;13.284;2023-01-09T00:41:05;9.20;99.90
12604;DHT22;6367;52.508;13.284;2023-01-09T00:43:37;9.10;99.90
12604;DHT22;6367;52.508;13.284;2023-01-09T00:46:05;9.10;99.90
12604;DHT22;6367;52.508;13.284;2023-01-09T00:48:32;9.10;99.90
12604;DHT22;6367;52.508;13.284;2023-01-09T00:50:59;8.90;99.90
12604;DHT22;6367;52.508;13.284;2023-01-09T00:53:28;8.90;99.90
12604;DHT22;6367;52.508;13.284;2023-01-09T00:55:56;8.80;99.90
12604;DHT22;6367;52.508;13.284;2023-01-09T00:58:23;9.10;99.90
12604;DHT22;6367;52.508;13.284;2023-01-09T01:00:49;8.90;99.90
12604;DHT22;6367;52.508;13.284;2023-01-09T01:03:14;8.90;99.90
12604;DHT22;6367;52.508;13.284;2023-01-09T01:05:40;9.00;99.90
12604;DHT22;6367;52.508;13.284;2023-01-09T01:08:38;8.90;99.90
12604;DHT22;6367;52.508;13.284;2023-01-09T01:11:05;8.90;99.90
12604;DHT22;6367;52.508;13.284;2023-01-09T01:13:33;8.90;99.90
12604;DHT22;6367;52.508;13.284;2023-01-09T01:15:59;8.80;99.90
12604;DHT22;6367;52.508;13.284;2023-01-09T01:18:24;8.80;99.90
12604;DHT22;6367;52.508;13.284;2023-01-09T01:20:50;8.90;99.90
12604;DHT22;6367;52.508;13.284;2023-01-09T01:23:16;8.70;99.90
12604;DHT22;6367;52.508;13.284;2023-01-09T01:25:42;8.60;99.90
12604;DHT22;6367;52.508;13.284;2023-01-09T01:28:08;8.70;99.90
12604;DHT22;6367;52.508;13.284;2023-01-09T01:30:39;8.70;99.90
12604;DHT22;6367;52.508;13.284;2023-01-09T01:33:05;8.80;99.90
12604;DHT22;6367;52.508;13.284;2023-01-09T01:35:31;8.80;99.90
12604;DHT22;6367;52.508;13.284;2023-01-09T01:37:57;8.80;99.90
12604;DHT22;6367;52.508;13.284;2023-01-09T01:40:22;8.70;99.90
12604;DHT22;6367;52.508;13.284;2023-01-09T01:42:50;8.70;99.90
12604;DHT22;6367;52.508;13.284;2023-01-09T01:45:27;8.60;99.90
12604;DHT22;6367;52.508;13.284;2023-01-09T01:48:08;8.70;99.90
12604;DHT22;6367;52.508;13.284;2023-01-09T01:53:32;8.80;99.90
12604;DHT22;6367;52.508;13.284;2023-01-09T01:58:26;8.70;99.90
12604;DHT22;6367;52.508;13.284;2023-01-09T02:00:52;8.70;99.90
12604;DHT22;6367;52.508;13.284;2023-01-09T02:03:22;9.30;99.90
12604;DHT22;6367;52.508;13.284;2023-01-09T02:05:48;9.00;99.90
12604;DHT22;6367;52.508;13.284;2023-01-09T02:08:14;8.70;99.90
12604;DHT22;6367;52.508;13.284;2023-01-09T02:10:41;8.70;99.90
12604;DHT22;6367;52.508;13.284;2023-01-09T02:13:08;8.80;99.90
12604;DHT22;6367;52.508;13.284;2023-01-09T02:18:24;8.40;99.90
12604;DHT22;6367;52.508;13.284;2023-01-09T02:20:59;8.70;99.90
12604;DHT22;6367;52.508;13.284;2023-01-09T02:32:52;8.40;99.90
12604;DHT22;6367;52.508;13.284;2023-01-09T02:41:08;8.40;99.90
12604;DHT22;6367;52.508;13.284;2023-01-09T02:43:38;8.30;99.90
12604;DHT22;6367;52.508;13.284;2023-01-09T02:46:04;8.50;99.90
12604;DHT22;6367;52.508;13.284;2023-01-09T02:48:30;8.30;99.90
12604;DHT22;6367;52.508;13.284;2023-01-09T02:54:07;8.20;99.90
12604;DHT22;6367;52.508;13.284;2023-01-09T02:57:02;8.20;99.90
12604;DHT22;6367;52.508;13.284;2023-01-09T03:00:07;8.20;99.90
12604;DHT22;6367;52.508;13.284;2023-01-09T03:05:29;8.10;99.90
12604;DHT22;6367;52.508;13.284;2023-01-09T03:08:03;8.10;99.90
12604;DHT22;6367;52.508;13.284;2023-01-09T03:10:35;8.00;99.90
12604;DHT22;6367;52.508;13.284;2023-01-09T03:13:02;8.10;99.90
12604;DHT22;6367;52.508;13.284;2023-01-09T03:15:32;8.10;99.90
12604;DHT22;6367;52.508;13.284;2023-01-09T03:17:59;8.20;99.90
12604;DHT22;6367;52.508;13.284;2023-01-09T03:20:26;8.10;99.90
12604;DHT22;6367;52.508;13.284;2023-01-09T03:25:18;8.10;99.90
12604;DHT22;6367;52.508;13.284;2023-01-09T03:27:44;8.40;99.90
12604;DHT22;6367;52.508;13.284;2023-01-09T03:30:10;8.20;99.90
12604;DHT22;6367;52.508;13.284;2023-01-09T03:32:36;8.30;99.90
12604;DHT22;6367;52.508;13.284;2023-01-09T03:35:01;8.20;99.90
12604;DHT22;6367;52.508;13.284;2023-01-09T03:37:27;8.20;99.90
12604;DHT22;6367;52.508;13.284;2023-01-09T03:39:53;8.20;99.90
12604;DHT22;6367;52.508;13.284;2023-01-09T03:42:18;8.30;99.90
12604;DHT22;6367;52.508;13.284;2023-01-09T03:44:44;8.40;99.90
12604;DHT22;6367;52.508;13.284;2023-01-09T03:47:09;8.40;99.90
12604;DHT22;6367;52.508;13.284;2023-01-09T03:49:35;8.40;99.90
12604;DHT22;6367;52.508;13.284;2023-01-09T03:52:01;8.50;99.90
12604;DHT22;6367;52.508;13.284;2023-01-09T03:54:26;8.50;99.90
12604;DHT22;6367;52.508;13.284;2023-01-09T03:56:52;8.60;99.90
12604;DHT22;6367;52.508;13.284;2023-01-09T03:59:18;8.70;99.90
12604;DHT22;6367;52.508;13.284;2023-01-09T04:01:43;8.70;99.90
12604;DHT22;6367;52.508;13.284;2023-01-09T04:04:09;9.10;99.90
12604;DHT22;6367;52.508;13.284;2023-01-09T04:06:34;8.70;99.90
12604;DHT22;6367;52.508;13.284;2023-01-09T04:09:00;8.70;99.90
12604;DHT22;6367;52.508;13.284;2023-01-09T04:11:26;8.60;99.90
12604;DHT22;6367;52.508;13.284;2023-01-09T04:13:51;8.50;99.90
12604;DHT22;6367;52.508;13.284;2023-01-09T04:16:17;8.50;99.90
12604;DHT22;6367;52.508;13.284;2023-01-09T04:18:43;8.60;99.90
12604;DHT22;6367;52.508;13.284;2023-01-09T04:21:08;8.70;99.90
12604;DHT22;6367;52.508;13.284;2023-01-09T04:23:34;8.70;99.90
12604;DHT22;6367;52.508;13.284;2023-01-09T04:26:00;8.70;99.90
12604;DHT22;6367;52.508;13.284;2023-01-09T04:28:25;8.60;99.90
12604;DHT22;6367;52.508;13.284;2023-01-09T04:30:51;8.50;99.90
12604;DHT22;6367;52.508;13.284;2023-01-09T04:33:17;8.50;99.90
12604;DHT22;6367;52.508;13.284;2023-01-09T04:35:42;8.50;99.90
12604;DHT22;6367;52.508;13.284;2023-01-09T04:38:08;8.60;99.90
12604;DHT22;6367;52.508;13.284;2023-01-09T04:40:33;8.50;99.90
12604;DHT22;6367;52.508;13.284;2023-01-09T04:42:59;8.50;99.90
12604;DHT22;6367;52.508;13.284;2023-01-09T04:45:25;8.90;99.90
12604;DHT22;6367;52.508;13.284;2023-01-09T04:47:50;8.50;99.90
12604;DHT22;6367;52.508;13.284;2023-01-09T04:50:16;8.50;99.90
12604;DHT22;6367;52.508;13.284;2023-01-09T04:52:41;8.60;99.90
12604;DHT22;6367;52.508;13.284;2023-01-09T04:55:07;8.50;99.90
12604;DHT22;6367;52.508;13.284;2023-01-09T04:57:34;8.50;99.90
12604;DHT22;6367;52.508;13.284;2023-01-09T05:00:00;8.60;99.90
12604;DHT22;6367;52.508;13.284;2023-01-09T05:02:26;8.70;99.90
12604;DHT22;6367;52.508;13.284;2023-01-09T05:04:52;8.70;99.90
12604;DHT22;6367;52.508;13.284;2023-01-09T05:07:17;8.50;99.90
12604;DHT22;6367;52.508;13.284;2023-01-09T05:09:43;8.70;99.90
12604;DHT22;6367;52.508;13.284;2023-01-09T05:12:09;8.60;99.90
12604;DHT22;6367;52.508;13.284;2023-01-09T05:14:35;8.70;99.90
12604;DHT22;6367;52.508;13.284;2023-01-09T05:17:00;8.70;99.90
12604;DHT22;6367;52.508;13.284;2023-01-09T05:19:26;8.70;99.90
12604;DHT22;6367;52.508;13.284;2023-01-09T05:21:52;8.70;99.90
12604;DHT22;6367;52.508;13.284;2023-01-09T05:24:17;8.70;99.90
12604;DHT22;6367;52.508;13.284;2023-01-09T05:26:43;8.80;99.90
12604;DHT22;6367;52.508;13.284;2023-01-09T05:29:09;8.70;99.90
12604;DHT22;6367;52.508;13.284;2023-01-09T05:31:35;8.80;99.90
12604;DHT22;6367;52.508;13.284;2023-01-09T05:34:00;8.70;99.90
12604;DHT22;6367;52.508;13.284;2023-01-09T05:36:26;8.70;99.90
12604;DHT22;6367;52.508;13.284;2023-01-09T05:38:52;8.60;99.90
12604;DHT22;6367;52.508;13.284;2023-01-09T05:41:18;8.60;99.90
12604;DHT22;6367;52.508;13.284;2023-01-09T05:43:44;8.70;99.90
12604;DHT22;6367;52.508;13.284;2023-01-09T05:46:09;8.70;99.90
12604;DHT22;6367;52.508;13.284;2023-01-09T05:48:35;8.60;99.90
12604;DHT22;6367;52.508;13.284;2023-01-09T05:51:03;8.60;99.90
12604;DHT22;6367;52.508;13.284;2023-01-09T05:53:29;8.60;99.90
12604;DHT22;6367;52.508;13.284;2023-01-09T05:55:54;8.70;99.90
12604;DHT22;6367;52.508;13.284;2023-01-09T05:58:20;8.70;99.90
12604;DHT22;6367;52.508;13.284;2023-01-09T06:00:45;8.70;99.90
12604;DHT22;6367;52.508;13.284;2023-01-09T06:03:13;8.80;99.90
12604;DHT22;6367;52.508;13.284;2023-01-09T06:05:39;8.90;99.90
12604;DHT22;6367;52.508;13.284;2023-01-09T06:08:04;8.80;99.90
12604;DHT22;6367;52.508;13.284;2023-01-09T06:10:30;8.70;99.90
12604;DHT22;6367;52.508;13.284;2023-01-09T06:12:56;8.70;99.90
12604;DHT22;6367;52.508;13.284;2023-01-09T06:15:21;8.70;99.90
12604;DHT22;6367;52.508;13.284;2023-01-09T06:17:47;8.70;99.90
12604;DHT22;6367;52.508;13.284;2023-01-09T06:20:13;8.70;99.90
12604;DHT22;6367;52.508;13.284;2023-01-09T06:22:39;8.80;99.90
12604;DHT22;6367;52.508;13.284;2023-01-09T06:25:05;8.70;99.90
12604;DHT22;6367;52.508;13.284;2023-01-09T06:27:30;8.60;99.90
12604;DHT22;6367;52.508;13.284;2023-01-09T06:29:56;8.70;99.90
12604;DHT22;6367;52.508;13.284;2023-01-09T06:32:22;8.80;99.90
12604;DHT22;6367;52.508;13.284;2023-01-09T06:34:47;8.70;99.90
12604;DHT22;6367;52.508;13.284;2023-01-09T06:37:13;8.80;99.90
12604;DHT22;6367;52.508;13.284;2023-01-09T06:39:39;8.70;99.90
12604;DHT22;6367;52.508;13.284;2023-01-09T06:42:05;9.00;99.90
12604;DHT22;6367;52.508;13.284;2023-01-09T06:44:31;8.70;99.90
12604;DHT22;6367;52.508;13.284;2023-01-09T06:46:57;8.80;99.90
12604;DHT22;6367;52.508;13.284;2023-01-09T06:49:23;8.70;99.90
12604;DHT22;6367;52.508;13.284;2023-01-09T06:51:52;8.80;99.90
12604;DHT22;6367;52.508;13.284;2023-01-09T06:54:18;8.80;99.90
12604;DHT22;6367;52.508;13.284;2023-01-09T06:56:44;8.80;99.90
12604;DHT22;6367;52.508;13.284;2023-01-09T06:59:10;8.70;99.90
12604;DHT22;6367;52.508;13.284;2023-01-09T07:01:36;8.70;99.90
12604;DHT22;6367;52.508;13.284;2023-01-09T07:04:04;8.70;99.90
12604;DHT22;6367;52.508;13.284;2023-01-09T07:06:30;8.60;99.90
12604;DHT22;6367;52.508;13.284;2023-01-09T07:08:56;8.60;99.90
12604;DHT22;6367;52.508;13.284;2023-01-09T07:11:22;8.60;99.90
12604;DHT22;6367;52.508;13.284;2023-01-09T07:13:47;8.30;99.90
12604;DHT22;6367;52.508;13.284;2023-01-09T07:16:13;8.80;99.90
12604;DHT22;6367;52.508;13.284;2023-01-09T07:18:39;8.70;99.90
12604;DHT22;6367;52.508;13.284;2023-01-09T07:21:05;8.70;99.90
12604;DHT22;6367;52.508;13.284;2023-01-09T07:23:31;8.70;99.90
12604;DHT22;6367;52.508;13.284;2023-01-09T07:25:58;8.70;99.90
12604;DHT22;6367;52.508;13.284;2023-01-09T07:28:24;8.60;99.90
12604;DHT22;6367;52.508;13.284;2023-01-09T07:30:50;8.60;99.90
12604;DHT22;6367;52.508;13.284;2023-01-09T07:33:16;8.80;99.90
12604;DHT22;6367;52.508;13.284;2023-01-09T07:35:41;8.70;99.90
12604;DHT22;6367;52.508;13.284;2023-01-09T07:38:07;8.70;99.90
12604;DHT22;6367;52.508;13.284;2023-01-09T07:40:33;8.70;99.90
12604;DHT22;6367;52.508;13.284;2023-01-09T07:42:58;8.80;99.90
12604;DHT22;6367;52.508;13.284;2023-01-09T07:45:24;8.80;99.90
12604;DHT22;6367;52.508;13.284;2023-01-09T07:47:50;9.00;99.90
12604;DHT22;6367;52.508;13.284;2023-01-09T07:50:17;9.00;99.90
12604;DHT22;6367;52.508;13.284;2023-01-09T07:52:46;9.00;99.90
12604;DHT22;6367;52.508;13.284;2023-01-09T07:55:12;9.10;99.90
12604;DHT22;6367;52.508;13.284;2023-01-09T07:57:38;9.00;99.90
12604;DHT22;6367;52.508;13.284;2023-01-09T08:00:04;8.90;99.90
12604;DHT22;6367;52.508;13.284;2023-01-09T08:02:32;8.80;99.90
12604;DHT22;6367;52.508;13.284;2023-01-09T08:04:58;8.90;99.90
12604;DHT22;6367;52.508;13.284;2023-01-09T08:07:23;8.90;99.90
12604;DHT22;6367;52.508;13.284;2023-01-09T08:09:49;8.90;99.90
12604;DHT22;6367;52.508;13.284;2023-01-09T08:12:15;9.60;99.90
12604;DHT22;6367;52.508;13.284;2023-01-09T08:14:40;9.00;99.90
12604;DHT22;6367;52.508;13.284;2023-01-09T08:17:06;9.00;99.90
12604;DHT22;6367;52.508;13.284;2023-01-09T08:19:33;9.00;99.90
12604;DHT22;6367;52.508;13.284;2023-01-09T08:21:59;9.00;99.90
12604;DHT22;6367;52.508;13.284;2023-01-09T08:24:25;9.10;99.90
12604;DHT22;6367;52.508;13.284;2023-01-09T08:26:50;9.20;99.90
12604;DHT22;6367;52.508;13.284;2023-01-09T08:29:16;9.10;99.90
12604;DHT22;6367;52.508;13.284;2023-01-09T08:31:41;9.20;99.90
12604;DHT22;6367;52.508;13.284;2023-01-09T08:34:07;9.30;99.90
12604;DHT22;6367;52.508;13.284;2023-01-09T08:36:33;9.20;99.90
12604;DHT22;6367;52.508;13.284;2023-01-09T08:38:58;9.30;99.90
12604;DHT22;6367;52.508;13.284;2023-01-09T08:41:24;9.30;99.90
12604;DHT22;6367;52.508;13.284;2023-01-09T08:44:08;9.20;99.90
12604;DHT22;6367;52.508;13.284;2023-01-09T08:46:52;9.20;99.90
12604;DHT22;6367;52.508;13.284;2023-01-09T08:49:30;9.20;99.90
12604;DHT22;6367;52.508;13.284;2023-01-09T08:51:56;9.30;99.90
12604;DHT22;6367;52.508;13.284;2023-01-09T08:54:22;9.30;99.90
12604;DHT22;6367;52.508;13.284;2023-01-09T08:56:47;9.40;99.90
12604;DHT22;6367;52.508;13.284;2023-01-09T08:59:14;9.40;99.90
12604;DHT22;6367;52.508;13.284;2023-01-09T09:01:40;9.40;99.90
12604;DHT22;6367;52.508;13.284;2023-01-09T09:04:05;9.50;99.90
12604;DHT22;6367;52.508;13.284;2023-01-09T09:06:32;9.50;99.90
12604;DHT22;6367;52.508;13.284;2023-01-09T09:08:58;9.60;99.90
12604;DHT22;6367;52.508;13.284;2023-01-09T09:11:29;9.50;99.90
12604;DHT22;6367;52.508;13.284;2023-01-09T09:13:55;9.60;99.90
12604;DHT22;6367;52.508;13.284;2023-01-09T09:16:21;9.60;99.90
12604;DHT22;6367;52.508;13.284;2023-01-09T09:18:46;9.60;99.90
12604;DHT22;6367;52.508;13.284;2023-01-09T09:21:12;9.70;99.90
12604;DHT22;6367;52.508;13.284;2023-01-09T09:23:38;9.70;99.90
12604;DHT22;6367;52.508;13.284;2023-01-09T09:26:04;9.70;99.90
12604;DHT22;6367;52.508;13.284;2023-01-09T09:28:29;9.70;99.90
12604;DHT22;6367;52.508;13.284;2023-01-09T09:30:55;9.70;99.90
12604;DHT22;6367;52.508;13.284;2023-01-09T09:33:21;9.80;99.90
12604;DHT22;6367;52.508;13.284;2023-01-09T09:35:46;9.80;99.90
12604;DHT22;6367;52.508;13.284;2023-01-09T09:38:12;9.80;99.90
12604;DHT22;6367;52.508;13.284;2023-01-09T09:53:32;10.10;99.90
12604;DHT22;6367;52.508;13.284;2023-01-09T09:55:59;10.10;99.90
12604;DHT22;6367;52.508;13.284;2023-01-09T09:58:40;10.20;99.90
12604;DHT22;6367;52.508;13.284;2023-01-09T10:01:09;10.20;99.90
12604;DHT22;6367;52.508;13.284;2023-01-09T10:03:49;10.30;99.90
12604;DHT22;6367;52.508;13.284;2023-01-09T10:06:27;10.40;99.90
12604;DHT22;6367;52.508;13.284;2023-01-09T10:09:17;10.40;99.90
12604;DHT22;6367;52.508;13.284;2023-01-09T10:14:33;10.50;99.90
12604;DHT22;6367;52.508;13.284;2023-01-09T10:17:10;10.60;99.90
12604;DHT22;6367;52.508;13.284;2023-01-09T10:25:26;10.60;99.90
12604;DHT22;6367;52.508;13.284;2023-01-09T10:28:22;10.60;99.90
12604;DHT22;6367;52.508;13.284;2023-01-09T10:39:24;10.80;99.90
12604;DHT22;6367;52.508;13.284;2023-01-09T10:47:23;11.10;99.90
12604;DHT22;6367;52.508;13.284;2023-01-09T10:49:51;11.40;99.90
12604;DHT22;6367;52.508;13.284;2023-01-09T10:52:18;11.10;99.90
12604;DHT22;6367;52.508;13.284;2023-01-09T10:55:18;11.10;99.90
12604;DHT22;6367;52.508;13.284;2023-01-09T10:58:00;11.10;99.90
12604;DHT22;6367;52.508;13.284;2023-01-09T11:00:27;11.20;99.90
12604;DHT22;6367;52.508;13.284;2023-01-09T11:02:53;11.20;99.90
12604;DHT22;6367;52.508;13.284;2023-01-09T11:05:27;11.30;99.90
12604;DHT22;6367;52.508;13.284;2023-01-09T11:10:55;11.40;99.90
12604;DHT22;6367;52.508;13.284;2023-01-09T11:13:27;11.30;99.90
12604;DHT22;6367;52.508;13.284;2023-01-09T11:18:29;11.40;99.90
12604;DHT22;6367;52.508;13.284;2023-01-09T11:20:55;11.40;99.90
12604;DHT22;6367;52.508;13.284;2023-01-09T11:23:27;11.80;99.90
12604;DHT22;6367;52.508;13.284;2023-01-09T11:25:55;11.50;99.90
12604;DHT22;6367;52.508;13.284;2023-01-09T11:28:21;11.50;99.90
12604;DHT22;6367;52.508;13.284;2023-01-09T11:30:57;11.50;99.90
12604;DHT22;6367;52.508;13.284;2023-01-09T11:36:04;11.60;99.90
12604;DHT22;6367;52.508;13.284;2023-01-09T11:38:53;11.60;99.90
12604;DHT22;6367;52.508;13.284;2023-01-09T11:41:22;11.50;99.90
12604;DHT22;6367;52.508;13.284;2023-01-09T11:43:50;11.60;99.90
12604;DHT22;6367;52.508;13.284;2023-01-09T11:46:38;11.50;99.90
12604;DHT22;6367;52.508;13.284;2023-01-09T11:49:20;11.60;99.90
12604;DHT22;6367;52.508;13.284;2023-01-09T11:52:08;12.10;99.90
12604;DHT22;6367;52.508;13.284;2023-01-09T11:54:43;11.70;99.90
12604;DHT22;6367;52.508;13.284;2023-01-09T11:57:11;11.70;99.90
12604;DHT22;6367;52.508;13.284;2023-01-09T11:59:37;11.80;99.90
12604;DHT22;6367;52.508;13.284;2023-01-09T12:05:15;11.80;99.90
12604;DHT22;6367;52.508;13.284;2023-01-09T12:07:53;11.80;99.90
12604;DHT22;6367;52.508;13.284;2023-01-09T12:26:41;12.20;99.90
12604;DHT22;6367;52.508;13.284;2023-01-09T12:46:22;12.30;99.90
12604;DHT22;6367;52.508;13.284;2023-01-09T12:51:47;12.30;99.90
12604;DHT22;6367;52.508;13.284;2023-01-09T12:56:47;12.10;99.90
12604;DHT22;6367;52.508;13.284;2023-01-09T13:01:45;12.00;99.90
12604;DHT22;6367;52.508;13.284;2023-01-09T13:04:23;12.00;99.90
12604;DHT22;6367;52.508;13.284;2023-01-09T13:07:03;11.90;99.90
12604;DHT22;6367;52.508;13.284;2023-01-09T13:12:15;11.90;99.90
12604;DHT22;6367;52.508;13.284;2023-01-09T13:17:30;12.00;99.90
12604;DHT22;6367;52.508;13.284;2023-01-09T13:19:58;12.10;99.90
12604;DHT22;6367;52.508;13.284;2023-01-09T13:22:27;12.10;99.90
12604;DHT22;6367;52.508;13.284;2023-01-09T13:27:39;12.10;99.90
12604;DHT22;6367;52.508;13.284;2023-01-09T13:30:16;12.10;99.90
12604;DHT22;6367;52.508;13.284;2023-01-09T13:33:03;12.10;99.90
12604;DHT22;6367;52.508;13.284;2023-01-09T13:35:55;12.10;99.90
12604;DHT22;6367;52.508;13.284;2023-01-09T13:38:28;12.00;99.90
12604;DHT22;6367;52.508;13.284;2023-01-09T13:43:53;12.00;99.90
12604;DHT22;6367;52.508;13.284;2023-01-09T13:46:19;12.00;99.90
12604;DHT22;6367;52.508;13.284;2023-01-09T13:48:46;12.00;99.90
12604;DHT22;6367;52.508;13.284;2023-01-09T13:54:11;12.00;99.90
12604;DHT22;6367;52.508;13.284;2023-01-09T13:59:41;12.10;99.90
12604;DHT22;6367;52.508;13.284;2023-01-09T14:05:03;12.00;99.90
12604;DHT22;6367;52.508;13.284;2023-01-09T14:07:42;12.00;99.90
12604;DHT22;6367;52.508;13.284;2023-01-09T14:10:22;12.10;99.90
12604;DHT22;6367;52.508;13.284;2023-01-09T14:12:49;12.10;99.90
12604;DHT22;6367;52.508;13.284;2023-01-09T14:18:01;12.00;99.90
12604;DHT22;6367;52.508;13.284;2023-01-09T14:20:39;11.90;99.90
12604;DHT22;6367;52.508;13.284;2023-01-09T14:23:06;11.90;99.90
12604;DHT22;6367;52.508;13.284;2023-01-09T14:25:32;11.90;99.90
12604;DHT22;6367;52.508;13.284;2023-01-09T14:30:38;11.90;99.90
12604;DHT22;6367;52.508;13.284;2023-01-09T14:36:18;11.90;99.90
12604;DHT22;6367;52.508;13.284;2023-01-09T14:38:52;11.90;99.90
12604;DHT22;6367;52.508;13.284;2023-01-09T14:50:02;12.00;99.90
12604;DHT22;6367;52.508;13.284;2023-01-09T14:52:36;12.00;99.90
12604;DHT22;6367;52.508;13.284;2023-01-09T14:57:49;11.90;99.90
12604;DHT22;6367;52.508;13.284;2023-01-09T15:00:20;11.90;99.90
12604;DHT22;6367;52.508;13.284;2023-01-09T15:02:47;11.90;99.90
12604;DHT22;6367;52.508;13.284;2023-01-09T15:05:19;11.90;99.90
12604;DHT22;6367;52.508;13.284;2023-01-09T15:07:57;11.80;99.90
12604;DHT22;6367;52.508;13.284;2023-01-09T15:10:28;11.70;99.90
12604;DHT22;6367;52.508;13.284;2023-01-09T15:12:57;11.70;99.90
12604;DHT22;6367;52.508;13.284;2023-01-09T15:15:23;11.70;99.90
12604;DHT22;6367;52.508;13.284;2023-01-09T15:17:56;11.70;99.90
12604;DHT22;6367;52.508;13.284;2023-01-09T15:20:25;11.70;99.90
12604;DHT22;6367;52.508;13.284;2023-01-09T15:22:53;11.70;99.90
12604;DHT22;6367;52.508;13.284;2023-01-09T15:27:50;11.70;99.90
12604;DHT22;6367;52.508;13.284;2023-01-09T15:30:25;11.60;99.90
12604;DHT22;6367;52.508;13.284;2023-01-09T15:32:55;11.60;99.90
12604;DHT22;6367;52.508;13.284;2023-01-09T15:35:20;11.70;99.90
12604;DHT22;6367;52.508;13.284;2023-01-09T15:37:47;11.50;99.90
12604;DHT22;6367;52.508;13.284;2023-01-09T15:40:18;11.50;99.90
12604;DHT22;6367;52.508;13.284;2023-01-09T15:42:47;11.50;99.90
12604;DHT22;6367;52.508;13.284;2023-01-09T15:45:41;11.50;99.90
12604;DHT22;6367;52.508;13.284;2023-01-09T15:48:19;11.70;99.90
12604;DHT22;6367;52.508;13.284;2023-01-09T15:50:47;10.80;99.90
12604;DHT22;6367;52.508;13.284;2023-01-09T15:53:23;11.40;99.90
12604;DHT22;6367;52.508;13.284;2023-01-09T15:56:16;11.40;99.90
12604;DHT22;6367;52.508;13.284;2023-01-09T15:58:49;11.40;99.90
12604;DHT22;6367;52.508;13.284;2023-01-09T16:01:33;11.30;99.90
12604;DHT22;6367;52.508;13.284;2023-01-09T16:04:11;11.30;99.90
12604;DHT22;6367;52.508;13.284;2023-01-09T16:09:27;11.40;99.90
12604;DHT22;6367;52.508;13.284;2023-01-09T16:11:56;11.40;99.90
12604;DHT22;6367;52.508;13.284;2023-01-09T16:14:33;11.50;99.90
12604;DHT22;6367;52.508;13.284;2023-01-09T16:17:04;11.50;99.90
12604;DHT22;6367;52.508;13.284;2023-01-09T16:19:56;11.50;99.90
12604;DHT22;6367;52.508;13.284;2023-01-09T16:24:52;11.40;99.90
12604;DHT22;6367;52.508;13.284;2023-01-09T16:29:57;11.40;99.90
12604;DHT22;6367;52.508;13.284;2023-01-09T16:32:30;11.30;99.90
12604;DHT22;6367;52.508;13.284;2023-01-09T16:35:14;11.30;99.90
12604;DHT22;6367;52.508;13.284;2023-01-09T16:37:40;11.30;99.90
12604;DHT22;6367;52.508;13.284;2023-01-09T16:42:42;11.20;99.90
12604;DHT22;6367;52.508;13.284;2023-01-09T16:45:35;11.20;99.90
12604;DHT22;6367;52.508;13.284;2023-01-09T16:48:09;11.10;99.90
12604;DHT22;6367;52.508;13.284;2023-01-09T16:50:35;11.10;99.90
12604;DHT22;6367;52.508;13.284;2023-01-09T16:53:05;11.20;99.90
12604;DHT22;6367;52.508;13.284;2023-01-09T16:55:36;11.20;99.90
12604;DHT22;6367;52.508;13.284;2023-01-09T16:58:02;11.20;99.90
12604;DHT22;6367;52.508;13.284;2023-01-09T17:00:28;11.10;99.90
12604;DHT22;6367;52.508;13.284;2023-01-09T17:02:54;11.30;99.90
12604;DHT22;6367;52.508;13.284;2023-01-09T17:05:21;11.10;99.90
12604;DHT22;6367;52.508;13.284;2023-01-09T17:07:47;11.30;99.90
12604;DHT22;6367;52.508;13.284;2023-01-09T17:10:18;11.10;99.90
12604;DHT22;6367;52.508;13.284;2023-01-09T17:12:44;11.10;99.90
12604;DHT22;6367;52.508;13.284;2023-01-09T17:15:10;11.00;99.90
12604;DHT22;6367;52.508;13.284;2023-01-09T17:17:35;10.90;99.90
12604;DHT22;6367;52.508;13.284;2023-01-09T17:20:01;11.00;99.90
12604;DHT22;6367;52.508;13.284;2023-01-09T17:22:28;11.10;99.90
12604;DHT22;6367;52.508;13.284;2023-01-09T17:24:54;11.00;99.90
12604;DHT22;6367;52.508;13.284;2023-01-09T17:27:43;11.00;99.90
12604;DHT22;6367;52.508;13.284;2023-01-09T17:30:27;11.00;99.90
12604;DHT22;6367;52.508;13.284;2023-01-09T17:32:53;10.90;99.90
12604;DHT22;6367;52.508;13.284;2023-01-09T17:35:19;10.90;99.90
12604;DHT22;6367;52.508;13.284;2023-01-09T17:37:44;11.00;99.90
12604;DHT22;6367;52.508;13.284;2023-01-09T17:40:21;11.00;99.90
12604;DHT22;6367;52.508;13.284;2023-01-09T17:42:47;10.90;99.90
12604;DHT22;6367;52.508;13.284;2023-01-09T17:45:13;10.90;99.90
12604;DHT22;6367;52.508;13.284;2023-01-09T17:47:39;11.00;99.90
12604;DHT22;6367;52.508;13.284;2023-01-09T17:50:05;11.00;99.90
12604;DHT22;6367;52.508;13.284;2023-01-09T17:52:31;10.90;99.90
12604;DHT22;6367;52.508;13.284;2023-01-09T17:54:57;10.90;99.90
12604;DHT22;6367;52.508;13.284;2023-01-09T17:57:30;10.90;99.90
12604;DHT22;6367;52.508;13.284;2023-01-09T17:59:56;11.00;99.90
12604;DHT22;6367;52.508;13.284;2023-01-09T18:02:21;10.80;99.90
12604;DHT22;6367;52.508;13.284;2023-01-09T18:04:47;10.80;99.90
12604;DHT22;6367;52.508;13.284;2023-01-09T18:07:16;10.80;99.90
12604;DHT22;6367;52.508;13.284;2023-01-09T18:09:43;10.80;99.90
12604;DHT22;6367;52.508;13.284;2023-01-09T18:12:09;10.80;99.90
12604;DHT22;6367;52.508;13.284;2023-01-09T18:14:36;10.90;99.90
12604;DHT22;6367;52.508;13.284;2023-01-09T18:17:05;10.80;99.90
12604;DHT22;6367;52.508;13.284;2023-01-09T18:19:32;10.80;99.90
12604;DHT22;6367;52.508;13.284;2023-01-09T18:21:58;10.70;99.90
12604;DHT22;6367;52.508;13.284;2023-01-09T18:24:24;10.70;99.90
12604;DHT22;6367;52.508;13.284;2023-01-09T18:26:50;10.70;99.90
12604;DHT22;6367;52.508;13.284;2023-01-09T18:29:16;10.70;99.90
12604;DHT22;6367;52.508;13.284;2023-01-09T18:31:43;10.70;99.90
12604;DHT22;6367;52.508;13.284;2023-01-09T18:34:09;10.80;99.90
12604;DHT22;6367;52.508;13.284;2023-01-09T18:36:35;10.80;99.90
12604;DHT22;6367;52.508;13.284;2023-01-09T18:39:02;10.70;99.90
12604;DHT22;6367;52.508;13.284;2023-01-09T18:41:29;10.70;99.90
12604;DHT22;6367;52.508;13.284;2023-01-09T18:43:58;10.60;99.90